createdAt,value
2022-12-24T00:03:20.599Z,100.00
2022-12-24T00:08:40.881Z,100.00
2022-12-24T00:13:47.942Z,100.00
2022-12-24T00:19:15.628Z,100.00
2022-12-24T00:24:20.980Z,100.00
2022-12-24T00:29:35.174Z,100.00
2022-12-24T00:34:42.137Z,100.00
2022-12-24T00:39:46.835Z,100.00
2022-12-24T00:44:54.796Z,100.00
2022-12-24T00:50:00.627Z,100.00
2022-12-24T00:55:07.365Z,100.00
2022-12-24T01:00:12.493Z,100.00
2022-12-24T01:05:21.134Z,100.00
2022-12-24T01:10:30.067Z,100.00
2022-12-24T01:15:35.237Z,100.00
2022-12-24T01:20:43.622Z,100.00
2022-12-24T01:25:52.845Z,100.00
2022-12-24T01:30:57.807Z,100.00
2022-12-24T01:36:05.800Z,100.00
2022-12-24T01:41:32.971Z,100.00
2022-12-24T01:46:45.997Z,100.00
2022-12-24T01:51:55.067Z,100.00
2022-12-24T01:57:02.985Z,100.00
2022-12-24T02:02:09.895Z,100.00
2022-12-24T02:07:18.345Z,100.00
2022-12-24T02:12:22.741Z,100.00
2022-12-24T02:17:34.725Z,100.00
2022-12-24T02:22:57.419Z,100.00
2022-12-24T02:28:10.839Z,100.00
2022-12-24T02:33:32.383Z,100.00
2022-12-24T02:38:40.714Z,100.00
2022-12-24T02:43:49.004Z,100.00
2022-12-24T02:48:55.379Z,100.00
2022-12-24T02:54:01.941Z,100.00
2022-12-24T02:59:30.991Z,100.00
2022-12-24T03:04:52.879Z,100.00
2022-12-24T03:10:18.076Z,100.00
2022-12-24T03:15:33.887Z,100.00
2022-12-24T03:20:49.402Z,100.00
2022-12-24T03:25:59.747Z,100.00
2022-12-24T03:31:07.225Z,100.00
2022-12-24T03:36:18.644Z,100.00
2022-12-24T03:41:24.784Z,100.00
2022-12-24T03:46:31.222Z,100.00
2022-12-24T03:51:37.152Z,100.00
2022-12-24T03:56:45.326Z,100.00
2022-12-24T04:01:50.843Z,100.00
2022-12-24T04:07:00.753Z,100.00
2022-12-24T04:12:05.444Z,100.00
2022-12-24T04:17:14.911Z,100.00
2022-12-24T04:22:20.715Z,100.00
2022-12-24T04:27:30.754Z,100.00
2022-12-24T04:32:38.536Z,100.00
2022-12-24T04:37:47.215Z,100.00
2022-12-24T04:42:52.735Z,100.00
2022-12-24T04:48:00.138Z,100.00
2022-12-24T04:53:07.813Z,100.00
2022-12-24T04:58:26.739Z,100.00
2022-12-24T05:03:44.742Z,100.00
2022-12-24T05:09:00.639Z,100.00
2022-12-24T05:14:18.965Z,100.00
2022-12-24T05:19:24.880Z,100.00
2022-12-24T05:24:50.761Z,100.00
2022-12-24T05:29:54.935Z,100.00
2022-12-24T05:35:00.961Z,100.00
2022-12-24T05:40:09.779Z,100.00
2022-12-24T05:45:20.323Z,100.00
2022-12-24T05:50:26.323Z,100.00
2022-12-24T05:55:33.967Z,100.00
2022-12-24T06:00:40.675Z,100.00
2022-12-24T06:05:46.896Z,100.00
2022-12-24T06:11:05.094Z,100.00
2022-12-24T06:16:12.212Z,100.00
2022-12-24T06:21:19.358Z,100.00
2022-12-24T06:26:26.645Z,100.00
2022-12-24T06:31:35.144Z,100.00
2022-12-24T06:36:40.808Z,100.00
2022-12-24T06:41:49.558Z,100.00
2022-12-24T06:46:53.983Z,100.00
2022-12-24T06:51:59.318Z,100.00
2022-12-24T06:57:08.728Z,100.00
2022-12-24T07:02:21.321Z,100.00
2022-12-24T07:07:31.773Z,100.00
2022-12-24T07:13:09.196Z,100.00
2022-12-24T07:18:18.873Z,100.00
2022-12-24T07:23:29.716Z,100.00
2022-12-24T07:28:49.005Z,100.00
2022-12-24T07:34:10.167Z,100.00
2022-12-24T07:39:32.597Z,100.00
2022-12-24T07:50:09.543Z,100.00
2022-12-24T07:55:17.440Z,100.00
2022-12-24T08:00:25.833Z,100.00
2022-12-24T08:05:34.312Z,100.00
2022-12-24T08:10:56.771Z,100.00
2022-12-24T08:16:06.569Z,100.00
2022-12-24T08:21:11.486Z,100.00
2022-12-24T08:26:16.451Z,100.00
2022-12-24T08:31:24.723Z,100.00
2022-12-24T08:36:28.895Z,100.00
2022-12-24T08:41:36.421Z,100.00
2022-12-24T08:46:44.369Z,100.00
2022-12-24T08:51:50.812Z,100.00
2022-12-24T08:56:55.054Z,100.00
2022-12-24T09:02:08.211Z,100.00
2022-12-24T09:07:13.303Z,100.00
2022-12-24T09:12:20.370Z,100.00
2022-12-24T09:17:27.337Z,100.00
2022-12-24T09:22:38.855Z,100.00
2022-12-24T09:27:46.683Z,99.88
2022-12-24T09:33:05.333Z,98.86
2022-12-24T09:38:12.429Z,99.23
2022-12-24T09:43:21.901Z,98.70
2022-12-24T09:48:33.577Z,97.94
2022-12-24T09:53:46.949Z,98.88
2022-12-24T09:59:01.323Z,98.31
2022-12-24T10:04:16.756Z,97.79
2022-12-24T10:09:32.931Z,97.83
2022-12-24T10:14:52.756Z,97.93
2022-12-24T10:20:23.229Z,98.19
2022-12-24T10:25:32.222Z,98.59
2022-12-24T10:30:38.637Z,98.32
2022-12-24T10:35:50.930Z,98.62
2022-12-24T10:41:01.249Z,98.28
2022-12-24T10:46:11.039Z,98.90
2022-12-24T10:51:25.696Z,99.18
2022-12-24T10:56:30.298Z,99.63
2022-12-24T11:01:49.093Z,98.77
2022-12-24T11:06:58.416Z,98.84
2022-12-24T11:12:09.584Z,98.29
2022-12-24T11:17:31.553Z,98.27
2022-12-24T11:22:43.671Z,98.24
2022-12-24T11:27:56.630Z,97.71
2022-12-24T11:33:23.209Z,97.49
2022-12-24T11:38:38.689Z,96.93
2022-12-24T11:43:51.721Z,96.39
2022-12-24T11:49:17.752Z,95.45
2022-12-24T11:54:47.576Z,95.32
2022-12-24T11:59:53.441Z,95.45
2022-12-24T12:05:02.955Z,95.24
2022-12-24T12:10:18.930Z,94.77
2022-12-24T12:15:28.812Z,94.55
2022-12-24T12:20:37.971Z,94.41
2022-12-24T12:25:57.115Z,93.60
2022-12-24T12:31:13.760Z,93.76
2022-12-24T12:36:22.896Z,93.75
2022-12-24T12:41:45.365Z,92.67
2022-12-24T12:47:13.407Z,92.39
2022-12-24T12:52:29.405Z,92.33
2022-12-24T12:57:41.810Z,91.64
2022-12-24T13:03:13.830Z,90.71
2022-12-24T13:09:00.654Z,90.52
2022-12-24T13:14:35.962Z,89.51
2022-12-24T13:20:14.177Z,90.51
2022-12-24T13:25:27.480Z,93.42
2022-12-24T13:30:40.771Z,95.61
2022-12-24T13:36:07.064Z,97.40
2022-12-24T13:42:00.979Z,98.67
2022-12-24T13:47:33.103Z,99.93
2022-12-24T13:52:42.884Z,99.78
2022-12-24T13:57:56.842Z,100.00
2022-12-24T14:03:17.629Z,100.00
2022-12-24T14:08:34.420Z,100.00
2022-12-24T14:14:12.509Z,100.00
2022-12-24T14:19:22.415Z,100.00
2022-12-24T14:24:30.540Z,100.00
2022-12-24T14:29:40.389Z,100.00
2022-12-24T14:34:46.183Z,100.00
2022-12-24T14:39:57.075Z,100.00
2022-12-24T14:45:16.298Z,100.00
2022-12-24T14:50:45.638Z,100.00
2022-12-24T14:55:53.176Z,100.00
2022-12-24T15:01:04.307Z,100.00
2022-12-24T15:06:39.519Z,100.00
2022-12-24T15:11:46.840Z,100.00
2022-12-24T15:16:58.178Z,100.00
2022-12-24T15:22:06.670Z,100.00
2022-12-24T15:27:19.508Z,100.00
2022-12-24T15:32:24.686Z,100.00
2022-12-24T15:38:00.363Z,100.00
2022-12-24T15:43:14.521Z,100.00
2022-12-24T15:48:26.240Z,100.00
2022-12-24T15:53:36.211Z,100.00
2022-12-24T15:58:51.364Z,100.00
2022-12-24T16:04:18.463Z,100.00
2022-12-24T16:09:47.129Z,100.00
2022-12-24T16:15:04.487Z,100.00
2022-12-24T16:20:34.124Z,100.00
2022-12-24T16:25:48.710Z,100.00
2022-12-24T16:30:58.173Z,100.00
2022-12-24T16:36:05.276Z,100.00
2022-12-24T16:41:17.212Z,100.00
2022-12-24T16:46:36.534Z,100.00
2022-12-24T16:51:46.115Z,100.00
2022-12-24T16:57:06.848Z,100.00
2022-12-24T17:02:28.372Z,100.00
2022-12-24T17:07:42.957Z,100.00
2022-12-24T17:12:53.822Z,100.00
2022-12-24T17:18:07.149Z,100.00
2022-12-24T17:23:16.251Z,100.00
2022-12-24T17:28:30.555Z,100.00
2022-12-24T17:33:36.564Z,100.00
2022-12-24T17:38:42.440Z,100.00
2022-12-24T17:43:50.637Z,100.00
2022-12-24T17:48:55.363Z,100.00
2022-12-24T17:54:00.307Z,100.00
2022-12-24T17:59:10.205Z,100.00
2022-12-24T18:04:28.196Z,100.00
2022-12-24T18:09:33.841Z,100.00
2022-12-24T18:14:40.342Z,100.00
2022-12-24T18:19:45.409Z,100.00
2022-12-24T18:24:52.702Z,100.00
2022-12-24T18:29:59.092Z,100.00
2022-12-24T18:35:07.326Z,100.00
2022-12-24T18:40:12.878Z,100.00
2022-12-24T18:45:21.773Z,100.00
2022-12-24T18:50:27.967Z,100.00
2022-12-24T18:55:35.935Z,100.00
2022-12-24T19:00:46.050Z,100.00
2022-12-24T19:05:54.628Z,100.00
2022-12-24T19:10:58.749Z,100.00
2022-12-24T19:16:07.311Z,100.00
2022-12-24T19:21:20.796Z,100.00
2022-12-24T19:26:24.998Z,100.00
2022-12-24T19:31:32.625Z,100.00
2022-12-24T19:36:37.801Z,100.00
2022-12-24T19:41:47.229Z,100.00
2022-12-24T19:46:55.638Z,100.00
2022-12-24T19:52:00.106Z,100.00
2022-12-24T19:57:06.494Z,100.00
2022-12-24T20:02:15.614Z,100.00
2022-12-24T20:07:24.894Z,100.00
2022-12-24T20:12:30.826Z,100.00
2022-12-24T20:17:36.968Z,100.00
2022-12-24T20:22:41.284Z,100.00
2022-12-24T20:27:49.823Z,100.00
2022-12-24T20:32:58.514Z,100.00
2022-12-24T20:38:05.341Z,100.00
2022-12-24T20:43:10.519Z,100.00
2022-12-24T20:48:21.199Z,100.00
2022-12-24T20:53:26.414Z,100.00
2022-12-24T20:58:34.980Z,100.00
2022-12-24T21:03:41.439Z,100.00
2022-12-24T21:08:47.476Z,100.00
2022-12-24T21:13:56.475Z,100.00
2022-12-24T21:19:07.344Z,100.00
2022-12-24T21:24:14.538Z,100.00
2022-12-24T21:29:19.119Z,100.00
2022-12-24T21:34:35.518Z,100.00
2022-12-24T21:39:45.889Z,100.00
2022-12-24T21:44:52.563Z,100.00
2022-12-24T21:50:17.393Z,100.00
2022-12-24T21:55:21.676Z,100.00
2022-12-24T22:00:31.561Z,100.00
2022-12-24T22:05:45.649Z,100.00
2022-12-24T22:11:07.361Z,100.00
2022-12-24T22:16:16.684Z,100.00
2022-12-24T22:21:27.000Z,100.00
2022-12-24T22:26:32.956Z,100.00
2022-12-24T22:31:38.881Z,100.00
2022-12-24T22:36:47.564Z,100.00
2022-12-24T22:41:56.140Z,100.00
2022-12-24T22:47:01.375Z,100.00
2022-12-24T22:52:09.023Z,100.00
2022-12-24T22:57:17.144Z,100.00
2022-12-24T23:02:29.329Z,100.00
2022-12-24T23:07:40.430Z,100.00
2022-12-24T23:13:01.956Z,100.00
2022-12-24T23:18:07.031Z,100.00
2022-12-24T23:23:17.963Z,100.00
2022-12-24T23:28:26.474Z,100.00
2022-12-24T23:33:37.573Z,100.00
2022-12-24T23:38:44.831Z,100.00
2022-12-24T23:43:50.560Z,100.00
2022-12-24T23:48:56.644Z,100.00
2022-12-24T23:54:13.458Z,100.00
2022-12-24T23:59:18.035Z,100.00
